KMKT/MKT METAR and TAF weather

Enter ICAO airport designator
Station Type Date Time Source
KMKT METAR 2019/04/25 11:56 UTC NOAA

KMKT 251156Z AUTO 28007KT 10SM -RA OVC070 12/11 A2983 RMK AO2 SLP100 P0002 60024 70026 T01170106 10144 20117 51018


Station Type Date Time Source
KMKT Decoded METAR 2019/04/25 11:56 UTC NOAA

Mankato, Mankato Regional Airport, MN, United States (KMKT) 44-13N 093-55W
Apr 25, 2019 - 07:56 AM EDT / 2019.04.25 1156 UTC
Wind: from the W (280 degrees) at 8 MPH (7 KT):0
Visibility: 10 mile(s):0
Sky conditions: overcast
Weather: light rain
Precipitation last hour: 0.02 inches
Temperature: 53.1 F (11.7 C)
Dew Point: 51.1 F (10.6 C)
Relative Humidity: 92%
Pressure (altimeter): 29.83 in. Hg (1010 hPa)
Pressure tendency: 0.05 inches (1.8 hPa) higher than three hours ago
ob: KMKT 251156Z AUTO 28007KT 10SM -RA OVC070 12/11 A2983 RMK AO2 SLP100 P0002 60024 70026 T01170106 10144 20117 51018
cycle: 12

Station Type Date Time Source
KMKT TAF 2019/04/25 12:21 UTC NOAA

TAF KMKT 251120Z 2512/2612 31007KT P6SM -RA OVC070
FM251400 33009KT P6SM OVC100
FM251500 33010KT P6SM OVC250
FM251700 33014G21KT P6SM BKN250
FM260100 32009KT P6SM SKC

Example: see airport list